sensor_id;sensor_type;location;lat;lon;timestamp;temperature;humidity
22430;DHT22;11382;48.086;11.632;2024-01-27T00:01:35;2.20;99.90
22430;DHT22;11382;48.086;11.632;2024-01-27T00:04:03;2.30;99.90
22430;DHT22;11382;48.086;11.632;2024-01-27T00:06:31;2.20;99.90
22430;DHT22;11382;48.086;11.632;2024-01-27T00:09:00;2.10;99.90
22430;DHT22;11382;48.086;11.632;2024-01-27T00:11:28;2.10;99.90
22430;DHT22;11382;48.086;11.632;2024-01-27T00:13:56;2.00;99.90
22430;DHT22;11382;48.086;11.632;2024-01-27T00:16:23;1.90;99.90
22430;DHT22;11382;48.086;11.632;2024-01-27T00:18:53;1.80;99.90
22430;DHT22;11382;48.086;11.632;2024-01-27T00:21:21;1.80;99.90
22430;DHT22;11382;48.086;11.632;2024-01-27T00:23:49;1.80;99.90
22430;DHT22;11382;48.086;11.632;2024-01-27T00:26:17;1.80;99.90
22430;DHT22;11382;48.086;11.632;2024-01-27T00:28:45;1.80;99.90
22430;DHT22;11382;48.086;11.632;2024-01-27T00:31:14;1.80;99.90
22430;DHT22;11382;48.086;11.632;2024-01-27T00:33:44;1.90;99.90
22430;DHT22;11382;48.086;11.632;2024-01-27T00:36:13;1.90;99.90
22430;DHT22;11382;48.086;11.632;2024-01-27T00:38:41;1.90;99.90
22430;DHT22;11382;48.086;11.632;2024-01-27T00:41:15;2.00;99.90
22430;DHT22;11382;48.086;11.632;2024-01-27T00:43:43;2.00;99.90
22430;DHT22;11382;48.086;11.632;2024-01-27T00:46:11;2.10;99.90
22430;DHT22;11382;48.086;11.632;2024-01-27T00:48:39;2.00;99.90
22430;DHT22;11382;48.086;11.632;2024-01-27T00:51:07;2.00;99.90
22430;DHT22;11382;48.086;11.632;2024-01-27T00:53:36;2.00;99.90
22430;DHT22;11382;48.086;11.632;2024-01-27T00:56:05;2.00;99.90
22430;DHT22;11382;48.086;11.632;2024-01-27T00:58:33;2.00;99.90
22430;DHT22;11382;48.086;11.632;2024-01-27T01:01:01;2.00;99.90
22430;DHT22;11382;48.086;11.632;2024-01-27T01:03:30;2.00;99.90
22430;DHT22;11382;48.086;11.632;2024-01-27T01:05:58;1.90;99.90
22430;DHT22;11382;48.086;11.632;2024-01-27T01:08:26;1.90;99.90
22430;DHT22;11382;48.086;11.632;2024-01-27T01:10:56;2.00;99.90
22430;DHT22;11382;48.086;11.632;2024-01-27T01:13:24;1.90;99.90
22430;DHT22;11382;48.086;11.632;2024-01-27T01:15:52;1.90;99.90
22430;DHT22;11382;48.086;11.632;2024-01-27T01:18:20;2.00;99.90
22430;DHT22;11382;48.086;11.632;2024-01-27T01:20:48;2.00;99.90
22430;DHT22;11382;48.086;11.632;2024-01-27T01:23:16;1.90;99.90
22430;DHT22;11382;48.086;11.632;2024-01-27T01:25:44;1.90;99.90
22430;DHT22;11382;48.086;11.632;2024-01-27T01:28:13;1.90;99.90
22430;DHT22;11382;48.086;11.632;2024-01-27T01:30:41;1.90;99.90
22430;DHT22;11382;48.086;11.632;2024-01-27T01:33:10;1.80;99.90
22430;DHT22;11382;48.086;11.632;2024-01-27T01:35:38;1.90;99.90
22430;DHT22;11382;48.086;11.632;2024-01-27T01:38:06;1.90;99.90
22430;DHT22;11382;48.086;11.632;2024-01-27T01:40:34;1.90;99.90
22430;DHT22;11382;48.086;11.632;2024-01-27T01:43:02;1.90;99.90
22430;DHT22;11382;48.086;11.632;2024-01-27T01:45:32;1.90;99.90
22430;DHT22;11382;48.086;11.632;2024-01-27T01:48:01;1.90;99.90
22430;DHT22;11382;48.086;11.632;2024-01-27T01:50:29;2.00;99.90
22430;DHT22;11382;48.086;11.632;2024-01-27T01:52:58;2.00;99.90
22430;DHT22;11382;48.086;11.632;2024-01-27T01:55:26;2.00;99.90
22430;DHT22;11382;48.086;11.632;2024-01-27T01:57:54;2.00;99.90
22430;DHT22;11382;48.086;11.632;2024-01-27T02:00:22;2.00;99.90
22430;DHT22;11382;48.086;11.632;2024-01-27T02:02:52;2.10;99.90
22430;DHT22;11382;48.086;11.632;2024-01-27T02:05:20;2.10;99.90
22430;DHT22;11382;48.086;11.632;2024-01-27T02:07:48;2.00;99.90
22430;DHT22;11382;48.086;11.632;2024-01-27T02:10:17;2.00;99.90
22430;DHT22;11382;48.086;11.632;2024-01-27T02:12:45;2.00;99.90
22430;DHT22;11382;48.086;11.632;2024-01-27T02:15:13;2.00;99.90
22430;DHT22;11382;48.086;11.632;2024-01-27T02:17:42;2.00;99.90
22430;DHT22;11382;48.086;11.632;2024-01-27T02:20:11;2.00;99.90
22430;DHT22;11382;48.086;11.632;2024-01-27T02:22:39;1.90;99.90
22430;DHT22;11382;48.086;11.632;2024-01-27T02:25:09;1.80;99.90
22430;DHT22;11382;48.086;11.632;2024-01-27T02:27:37;1.80;99.90
22430;DHT22;11382;48.086;11.632;2024-01-27T02:30:06;1.80;99.90
22430;DHT22;11382;48.086;11.632;2024-01-27T02:32:34;1.60;99.90
22430;DHT22;11382;48.086;11.632;2024-01-27T02:35:03;1.70;99.90
22430;DHT22;11382;48.086;11.632;2024-01-27T02:37:31;1.70;99.90
22430;DHT22;11382;48.086;11.632;2024-01-27T02:39:59;1.60;99.90
22430;DHT22;11382;48.086;11.632;2024-01-27T02:42:28;1.50;99.90
22430;DHT22;11382;48.086;11.632;2024-01-27T02:44:57;1.50;99.90
22430;DHT22;11382;48.086;11.632;2024-01-27T02:47:25;1.50;99.90
22430;DHT22;11382;48.086;11.632;2024-01-27T02:49:53;1.40;99.90
22430;DHT22;11382;48.086;11.632;2024-01-27T02:52:21;1.40;99.90
22430;DHT22;11382;48.086;11.632;2024-01-27T02:54:50;1.40;99.90
22430;DHT22;11382;48.086;11.632;2024-01-27T02:57:18;1.40;99.90
22430;DHT22;11382;48.086;11.632;2024-01-27T02:59:48;1.50;99.90
22430;DHT22;11382;48.086;11.632;2024-01-27T03:02:16;1.50;99.90
22430;DHT22;11382;48.086;11.632;2024-01-27T03:04:44;1.50;99.90
22430;DHT22;11382;48.086;11.632;2024-01-27T03:07:12;1.50;99.90
22430;DHT22;11382;48.086;11.632;2024-01-27T03:09:40;1.40;99.90
22430;DHT22;11382;48.086;11.632;2024-01-27T03:12:08;1.30;99.90
22430;DHT22;11382;48.086;11.632;2024-01-27T03:14:36;1.30;99.90
22430;DHT22;11382;48.086;11.632;2024-01-27T03:17:06;1.20;99.90
22430;DHT22;11382;48.086;11.632;2024-01-27T03:19:34;1.20;99.90
22430;DHT22;11382;48.086;11.632;2024-01-27T03:22:04;1.20;99.90
22430;DHT22;11382;48.086;11.632;2024-01-27T03:24:33;1.10;99.90
22430;DHT22;11382;48.086;11.632;2024-01-27T03:27:01;1.00;99.90
22430;DHT22;11382;48.086;11.632;2024-01-27T03:29:29;1.10;99.90
22430;DHT22;11382;48.086;11.632;2024-01-27T03:31:57;1.10;99.90
22430;DHT22;11382;48.086;11.632;2024-01-27T03:34:26;1.10;99.90
22430;DHT22;11382;48.086;11.632;2024-01-27T03:36:55;1.10;99.90
22430;DHT22;11382;48.086;11.632;2024-01-27T03:39:23;1.10;99.90
22430;DHT22;11382;48.086;11.632;2024-01-27T03:41:51;1.10;99.90
22430;DHT22;11382;48.086;11.632;2024-01-27T03:44:19;1.00;99.90
22430;DHT22;11382;48.086;11.632;2024-01-27T03:46:47;0.90;99.90
22430;DHT22;11382;48.086;11.632;2024-01-27T03:49:17;0.90;99.90
22430;DHT22;11382;48.086;11.632;2024-01-27T03:51:47;0.90;99.90
22430;DHT22;11382;48.086;11.632;2024-01-27T03:54:15;0.80;99.90
22430;DHT22;11382;48.086;11.632;2024-01-27T03:56:43;0.90;99.90
22430;DHT22;11382;48.086;11.632;2024-01-27T03:59:11;0.90;99.90
22430;DHT22;11382;48.086;11.632;2024-01-27T04:01:39;0.90;99.90
22430;DHT22;11382;48.086;11.632;2024-01-27T04:04:07;0.90;99.90
22430;DHT22;11382;48.086;11.632;2024-01-27T04:06:36;0.80;99.90
22430;DHT22;11382;48.086;11.632;2024-01-27T04:09:07;0.80;99.90
22430;DHT22;11382;48.086;11.632;2024-01-27T04:11:36;0.80;99.90
22430;DHT22;11382;48.086;11.632;2024-01-27T04:14:05;0.90;99.90
22430;DHT22;11382;48.086;11.632;2024-01-27T04:16:33;0.90;99.90
22430;DHT22;11382;48.086;11.632;2024-01-27T04:19:01;0.90;99.90
22430;DHT22;11382;48.086;11.632;2024-01-27T04:21:29;0.90;99.90
22430;DHT22;11382;48.086;11.632;2024-01-27T04:23:57;0.90;99.90
22430;DHT22;11382;48.086;11.632;2024-01-27T04:26:26;1.00;99.90
22430;DHT22;11382;48.086;11.632;2024-01-27T04:28:54;1.00;99.90
22430;DHT22;11382;48.086;11.632;2024-01-27T04:31:22;0.90;99.90
22430;DHT22;11382;48.086;11.632;2024-01-27T04:33:50;0.90;99.90
22430;DHT22;11382;48.086;11.632;2024-01-27T04:36:25;0.90;99.90
22430;DHT22;11382;48.086;11.632;2024-01-27T04:38:54;0.80;99.90
22430;DHT22;11382;48.086;11.632;2024-01-27T04:41:22;0.80;99.90
22430;DHT22;11382;48.086;11.632;2024-01-27T04:43:52;0.70;99.90
22430;DHT22;11382;48.086;11.632;2024-01-27T04:46:22;0.70;99.90
22430;DHT22;11382;48.086;11.632;2024-01-27T04:48:50;0.70;99.90
22430;DHT22;11382;48.086;11.632;2024-01-27T04:51:22;0.60;99.90
22430;DHT22;11382;48.086;11.632;2024-01-27T04:53:50;0.70;99.90
22430;DHT22;11382;48.086;11.632;2024-01-27T04:56:18;0.70;99.90
22430;DHT22;11382;48.086;11.632;2024-01-27T04:58:46;0.70;99.90
22430;DHT22;11382;48.086;11.632;2024-01-27T05:01:16;0.80;99.90
22430;DHT22;11382;48.086;11.632;2024-01-27T05:03:44;0.70;99.90
22430;DHT22;11382;48.086;11.632;2024-01-27T05:06:12;0.70;99.90
22430;DHT22;11382;48.086;11.632;2024-01-27T05:08:41;0.60;99.90
22430;DHT22;11382;48.086;11.632;2024-01-27T05:11:09;0.50;99.90
22430;DHT22;11382;48.086;11.632;2024-01-27T05:13:40;0.40;99.90
22430;DHT22;11382;48.086;11.632;2024-01-27T05:16:08;0.50;99.90
22430;DHT22;11382;48.086;11.632;2024-01-27T05:18:37;0.40;99.90
22430;DHT22;11382;48.086;11.632;2024-01-27T05:21:05;0.30;99.90
22430;DHT22;11382;48.086;11.632;2024-01-27T05:23:33;0.30;99.90
22430;DHT22;11382;48.086;11.632;2024-01-27T05:26:01;0.30;99.90
22430;DHT22;11382;48.086;11.632;2024-01-27T05:28:29;0.30;99.90
22430;DHT22;11382;48.086;11.632;2024-01-27T05:30:59;0.30;99.90
22430;DHT22;11382;48.086;11.632;2024-01-27T05:33:27;0.30;99.90
22430;DHT22;11382;48.086;11.632;2024-01-27T05:35:56;0.10;99.90
22430;DHT22;11382;48.086;11.632;2024-01-27T05:38:24;0.10;99.90
22430;DHT22;11382;48.086;11.632;2024-01-27T05:40:55;0.10;99.90
22430;DHT22;11382;48.086;11.632;2024-01-27T05:43:24;0.10;99.90
22430;DHT22;11382;48.086;11.632;2024-01-27T05:45:52;0.00;99.90
22430;DHT22;11382;48.086;11.632;2024-01-27T05:48:20;-0.10;99.90
22430;DHT22;11382;48.086;11.632;2024-01-27T05:50:56;-0.10;99.90
22430;DHT22;11382;48.086;11.632;2024-01-27T05:53:25;-0.10;99.90
22430;DHT22;11382;48.086;11.632;2024-01-27T05:55:53;-0.10;99.90
22430;DHT22;11382;48.086;11.632;2024-01-27T05:58:22;0.00;99.90
22430;DHT22;11382;48.086;11.632;2024-01-27T06:00:50;0.00;99.90
22430;DHT22;11382;48.086;11.632;2024-01-27T06:03:18;0.00;99.90
22430;DHT22;11382;48.086;11.632;2024-01-27T06:05:46;0.00;99.90
22430;DHT22;11382;48.086;11.632;2024-01-27T06:08:15;0.10;99.90
22430;DHT22;11382;48.086;11.632;2024-01-27T06:10:45;0.10;99.90
22430;DHT22;11382;48.086;11.632;2024-01-27T06:13:13;-0.10;99.90
22430;DHT22;11382;48.086;11.632;2024-01-27T06:15:41;-0.10;99.90
22430;DHT22;11382;48.086;11.632;2024-01-27T06:18:51;-0.10;99.90
22430;DHT22;11382;48.086;11.632;2024-01-27T06:21:20;-0.20;99.90
22430;DHT22;11382;48.086;11.632;2024-01-27T06:23:50;-0.20;99.90
22430;DHT22;11382;48.086;11.632;2024-01-27T06:26:18;-0.10;99.90
22430;DHT22;11382;48.086;11.632;2024-01-27T06:28:48;-0.20;99.90
22430;DHT22;11382;48.086;11.632;2024-01-27T06:31:16;-0.30;99.90
22430;DHT22;11382;48.086;11.632;2024-01-27T06:33:44;-0.30;99.90
22430;DHT22;11382;48.086;11.632;2024-01-27T06:36:12;-0.30;99.90
22430;DHT22;11382;48.086;11.632;2024-01-27T06:38:41;-0.40;99.90
22430;DHT22;11382;48.086;11.632;2024-01-27T06:41:11;-0.30;99.90
22430;DHT22;11382;48.086;11.632;2024-01-27T06:43:39;-0.30;99.90
22430;DHT22;11382;48.086;11.632;2024-01-27T06:46:07;-0.40;99.90
22430;DHT22;11382;48.086;11.632;2024-01-27T06:48:35;-0.40;99.90
22430;DHT22;11382;48.086;11.632;2024-01-27T06:51:04;-0.30;99.90
22430;DHT22;11382;48.086;11.632;2024-01-27T06:53:32;-0.30;99.90
22430;DHT22;11382;48.086;11.632;2024-01-27T06:56:00;-0.10;99.90
22430;DHT22;11382;48.086;11.632;2024-01-27T06:58:30;-0.10;99.90
22430;DHT22;11382;48.086;11.632;2024-01-27T07:00:57;-0.10;99.90
22430;DHT22;11382;48.086;11.632;2024-01-27T07:03:26;0.00;99.90
22430;DHT22;11382;48.086;11.632;2024-01-27T07:05:54;0.00;99.90
22430;DHT22;11382;48.086;11.632;2024-01-27T07:08:22;0.00;99.90
22430;DHT22;11382;48.086;11.632;2024-01-27T07:10:51;0.10;99.90
22430;DHT22;11382;48.086;11.632;2024-01-27T07:13:19;0.00;99.90
22430;DHT22;11382;48.086;11.632;2024-01-27T07:15:48;-0.10;99.90
22430;DHT22;11382;48.086;11.632;2024-01-27T07:18:16;-0.10;99.90
22430;DHT22;11382;48.086;11.632;2024-01-27T07:20:46;0.00;99.90
22430;DHT22;11382;48.086;11.632;2024-01-27T07:23:15;0.20;99.90
22430;DHT22;11382;48.086;11.632;2024-01-27T07:25:43;0.30;99.90
22430;DHT22;11382;48.086;11.632;2024-01-27T07:28:11;0.50;99.90
22430;DHT22;11382;48.086;11.632;2024-01-27T07:30:39;0.60;99.90
22430;DHT22;11382;48.086;11.632;2024-01-27T07:33:08;0.70;99.90
22430;DHT22;11382;48.086;11.632;2024-01-27T07:35:37;0.70;99.90
22430;DHT22;11382;48.086;11.632;2024-01-27T07:38:05;0.70;99.90
22430;DHT22;11382;48.086;11.632;2024-01-27T07:40:33;0.70;99.90
22430;DHT22;11382;48.086;11.632;2024-01-27T07:43:01;0.90;99.90
22430;DHT22;11382;48.086;11.632;2024-01-27T07:45:30;0.90;99.90
22430;DHT22;11382;48.086;11.632;2024-01-27T07:47:58;1.10;99.90
22430;DHT22;11382;48.086;11.632;2024-01-27T07:50:29;1.20;99.90
22430;DHT22;11382;48.086;11.632;2024-01-27T07:52:57;1.30;99.90
22430;DHT22;11382;48.086;11.632;2024-01-27T07:55:25;1.40;99.90
22430;DHT22;11382;48.086;11.632;2024-01-27T07:57:53;1.50;99.90
22430;DHT22;11382;48.086;11.632;2024-01-27T08:00:21;1.70;99.90
22430;DHT22;11382;48.086;11.632;2024-01-27T08:02:50;1.80;99.90
22430;DHT22;11382;48.086;11.632;2024-01-27T08:05:18;1.80;99.90
22430;DHT22;11382;48.086;11.632;2024-01-27T08:07:49;1.90;99.90
22430;DHT22;11382;48.086;11.632;2024-01-27T08:10:17;2.10;99.90
22430;DHT22;11382;48.086;11.632;2024-01-27T08:12:45;2.20;99.90
22430;DHT22;11382;48.086;11.632;2024-01-27T08:15:14;2.40;99.90
22430;DHT22;11382;48.086;11.632;2024-01-27T08:17:43;2.60;99.90
22430;DHT22;11382;48.086;11.632;2024-01-27T08:20:12;2.80;99.90
22430;DHT22;11382;48.086;11.632;2024-01-27T08:22:40;3.10;99.90
22430;DHT22;11382;48.086;11.632;2024-01-27T08:25:09;3.30;99.90
22430;DHT22;11382;48.086;11.632;2024-01-27T08:27:37;3.60;99.90
22430;DHT22;11382;48.086;11.632;2024-01-27T08:30:07;3.90;99.90
22430;DHT22;11382;48.086;11.632;2024-01-27T08:32:35;4.20;99.90
22430;DHT22;11382;48.086;11.632;2024-01-27T08:35:04;4.60;99.90
22430;DHT22;11382;48.086;11.632;2024-01-27T08:37:36;5.40;99.90
22430;DHT22;11382;48.086;11.632;2024-01-27T08:40:06;6.30;99.90
22430;DHT22;11382;48.086;11.632;2024-01-27T08:42:36;7.40;99.90
22430;DHT22;11382;48.086;11.632;2024-01-27T08:45:05;8.60;99.90
22430;DHT22;11382;48.086;11.632;2024-01-27T08:47:33;9.50;99.90
22430;DHT22;11382;48.086;11.632;2024-01-27T08:50:01;10.10;99.90
22430;DHT22;11382;48.086;11.632;2024-01-27T08:52:30;10.30;99.90
22430;DHT22;11382;48.086;11.632;2024-01-27T08:54:59;10.80;99.90
22430;DHT22;11382;48.086;11.632;2024-01-27T08:57:27;11.00;99.90
22430;DHT22;11382;48.086;11.632;2024-01-27T08:59:57;11.10;99.90
22430;DHT22;11382;48.086;11.632;2024-01-27T09:02:26;11.40;99.90
22430;DHT22;11382;48.086;11.632;2024-01-27T09:04:54;11.30;99.90
22430;DHT22;11382;48.086;11.632;2024-01-27T09:07:23;11.40;99.90
22430;DHT22;11382;48.086;11.632;2024-01-27T09:09:51;11.80;99.90
22430;DHT22;11382;48.086;11.632;2024-01-27T09:12:20;12.30;99.90
22430;DHT22;11382;48.086;11.632;2024-01-27T09:14:49;12.70;99.90
22430;DHT22;11382;48.086;11.632;2024-01-27T09:17:18;13.20;99.90
22430;DHT22;11382;48.086;11.632;2024-01-27T09:19:46;13.50;99.90
22430;DHT22;11382;48.086;11.632;2024-01-27T09:22:15;13.80;99.90
22430;DHT22;11382;48.086;11.632;2024-01-27T09:24:43;13.50;99.90
22430;DHT22;11382;48.086;11.632;2024-01-27T09:27:11;13.10;99.90
22430;DHT22;11382;48.086;11.632;2024-01-27T09:29:39;13.10;99.90
22430;DHT22;11382;48.086;11.632;2024-01-27T09:32:07;13.50;99.90
22430;DHT22;11382;48.086;11.632;2024-01-27T09:34:37;13.40;99.90
22430;DHT22;11382;48.086;11.632;2024-01-27T09:37:05;13.80;99.00
22430;DHT22;11382;48.086;11.632;2024-01-27T09:39:33;13.40;99.30
22430;DHT22;11382;48.086;11.632;2024-01-27T09:42:04;13.30;99.10
22430;DHT22;11382;48.086;11.632;2024-01-27T09:44:35;13.00;99.90
22430;DHT22;11382;48.086;11.632;2024-01-27T09:47:04;13.50;99.00
22430;DHT22;11382;48.086;11.632;2024-01-27T09:49:32;12.90;99.80
22430;DHT22;11382;48.086;11.632;2024-01-27T09:52:03;12.90;99.70
22430;DHT22;11382;48.086;11.632;2024-01-27T09:54:31;13.60;99.90
22430;DHT22;11382;48.086;11.632;2024-01-27T09:56:59;14.50;97.90
22430;DHT22;11382;48.086;11.632;2024-01-27T09:59:31;14.30;96.50
22430;DHT22;11382;48.086;11.632;2024-01-27T10:01:59;14.00;97.50
22430;DHT22;11382;48.086;11.632;2024-01-27T10:04:28;13.80;96.20
22430;DHT22;11382;48.086;11.632;2024-01-27T10:06:58;14.00;96.30
22430;DHT22;11382;48.086;11.632;2024-01-27T10:09:28;14.20;96.30
22430;DHT22;11382;48.086;11.632;2024-01-27T10:11:56;14.00;96.50
22430;DHT22;11382;48.086;11.632;2024-01-27T10:14:25;13.40;96.70
22430;DHT22;11382;48.086;11.632;2024-01-27T10:16:53;14.10;97.30
22430;DHT22;11382;48.086;11.632;2024-01-27T10:19:21;14.30;96.00
22430;DHT22;11382;48.086;11.632;2024-01-27T10:22:00;14.20;95.10
22430;DHT22;11382;48.086;11.632;2024-01-27T10:24:31;13.70;96.60
22430;DHT22;11382;48.086;11.632;2024-01-27T10:27:00;13.60;95.50
22430;DHT22;11382;48.086;11.632;2024-01-27T10:29:29;14.20;96.70
22430;DHT22;11382;48.086;11.632;2024-01-27T10:32:07;14.80;94.20
22430;DHT22;11382;48.086;11.632;2024-01-27T10:34:36;14.70;93.70
22430;DHT22;11382;48.086;11.632;2024-01-27T10:37:04;14.00;93.80
22430;DHT22;11382;48.086;11.632;2024-01-27T10:39:34;14.50;94.30
22430;DHT22;11382;48.086;11.632;2024-01-27T10:42:03;14.10;92.20
22430;DHT22;11382;48.086;11.632;2024-01-27T10:44:31;14.90;93.50
22430;DHT22;11382;48.086;11.632;2024-01-27T10:47:02;15.90;91.50
22430;DHT22;11382;48.086;11.632;2024-01-27T10:49:34;15.70;91.20
22430;DHT22;11382;48.086;11.632;2024-01-27T10:52:08;15.70;91.10
22430;DHT22;11382;48.086;11.632;2024-01-27T10:54:41;15.90;91.20
22430;DHT22;11382;48.086;11.632;2024-01-27T10:57:11;16.10;91.00
22430;DHT22;11382;48.086;11.632;2024-01-27T10:59:41;15.80;90.10
22430;DHT22;11382;48.086;11.632;2024-01-27T11:02:13;14.80;90.80
22430;DHT22;11382;48.086;11.632;2024-01-27T11:04:42;14.60;91.60
22430;DHT22;11382;48.086;11.632;2024-01-27T11:07:11;15.20;92.70
22430;DHT22;11382;48.086;11.632;2024-01-27T11:09:42;15.50;91.20
22430;DHT22;11382;48.086;11.632;2024-01-27T11:12:11;14.70;90.90
22430;DHT22;11382;48.086;11.632;2024-01-27T11:14:40;14.70;91.90
22430;DHT22;11382;48.086;11.632;2024-01-27T11:17:09;15.10;90.80
22430;DHT22;11382;48.086;11.632;2024-01-27T11:19:39;14.20;92.20
22430;DHT22;11382;48.086;11.632;2024-01-27T11:22:08;14.20;91.70
22430;DHT22;11382;48.086;11.632;2024-01-27T11:24:52;14.30;91.30
22430;DHT22;11382;48.086;11.632;2024-01-27T11:27:26;14.20;92.70
22430;DHT22;11382;48.086;11.632;2024-01-27T11:29:56;14.10;92.50
22430;DHT22;11382;48.086;11.632;2024-01-27T11:32:26;13.70;91.00
22430;DHT22;11382;48.086;11.632;2024-01-27T11:34:54;13.60;92.10
22430;DHT22;11382;48.086;11.632;2024-01-27T11:37:22;13.30;92.80
22430;DHT22;11382;48.086;11.632;2024-01-27T11:40:03;13.20;93.00
22430;DHT22;11382;48.086;11.632;2024-01-27T11:42:32;13.00;92.70
22430;DHT22;11382;48.086;11.632;2024-01-27T11:45:00;13.10;92.90
22430;DHT22;11382;48.086;11.632;2024-01-27T11:47:28;13.30;93.40
22430;DHT22;11382;48.086;11.632;2024-01-27T11:49:57;13.40;91.50
22430;DHT22;11382;48.086;11.632;2024-01-27T11:52:27;13.30;92.70
22430;DHT22;11382;48.086;11.632;2024-01-27T11:54:57;13.60;92.20
22430;DHT22;11382;48.086;11.632;2024-01-27T11:57:26;13.60;92.00
22430;DHT22;11382;48.086;11.632;2024-01-27T11:59:55;13.40;91.50
22430;DHT22;11382;48.086;11.632;2024-01-27T12:02:23;13.00;92.90
22430;DHT22;11382;48.086;11.632;2024-01-27T12:04:52;13.10;92.90
22430;DHT22;11382;48.086;11.632;2024-01-27T12:07:20;12.90;91.50
22430;DHT22;11382;48.086;11.632;2024-01-27T12:09:49;12.80;91.90
22430;DHT22;11382;48.086;11.632;2024-01-27T12:12:19;12.70;92.70
22430;DHT22;11382;48.086;11.632;2024-01-27T12:14:49;12.80;92.00
22430;DHT22;11382;48.086;11.632;2024-01-27T12:17:18;12.90;91.70
22430;DHT22;11382;48.086;11.632;2024-01-27T12:19:46;12.70;92.20
22430;DHT22;11382;48.086;11.632;2024-01-27T12:22:21;12.80;91.20
22430;DHT22;11382;48.086;11.632;2024-01-27T12:24:50;12.60;91.70
22430;DHT22;11382;48.086;11.632;2024-01-27T12:27:19;12.70;92.60
22430;DHT22;11382;48.086;11.632;2024-01-27T12:29:48;11.90;91.60
22430;DHT22;11382;48.086;11.632;2024-01-27T12:32:17;10.80;91.60
22430;DHT22;11382;48.086;11.632;2024-01-27T12:34:45;10.70;93.80
22430;DHT22;11382;48.086;11.632;2024-01-27T12:37:15;10.30;95.90
22430;DHT22;11382;48.086;11.632;2024-01-27T12:39:43;10.10;95.30
22430;DHT22;11382;48.086;11.632;2024-01-27T12:42:12;9.80;96.90
22430;DHT22;11382;48.086;11.632;2024-01-27T12:44:43;9.70;96.40
22430;DHT22;11382;48.086;11.632;2024-01-27T12:47:11;9.40;96.20
22430;DHT22;11382;48.086;11.632;2024-01-27T12:49:40;9.40;97.40
22430;DHT22;11382;48.086;11.632;2024-01-27T12:52:08;9.40;98.70
22430;DHT22;11382;48.086;11.632;2024-01-27T12:54:36;9.40;98.60
22430;DHT22;11382;48.086;11.632;2024-01-27T12:57:05;9.40;98.20
22430;DHT22;11382;48.086;11.632;2024-01-27T12:59:34;9.50;97.70
22430;DHT22;11382;48.086;11.632;2024-01-27T13:02:04;9.40;98.10
22430;DHT22;11382;48.086;11.632;2024-01-27T13:04:32;9.50;98.30
22430;DHT22;11382;48.086;11.632;2024-01-27T13:07:00;9.50;98.60
22430;DHT22;11382;48.086;11.632;2024-01-27T13:09:29;9.40;98.80
22430;DHT22;11382;48.086;11.632;2024-01-27T13:11:57;9.30;98.60
22430;DHT22;11382;48.086;11.632;2024-01-27T13:14:25;9.40;98.40
22430;DHT22;11382;48.086;11.632;2024-01-27T13:16:53;9.50;98.60
22430;DHT22;11382;48.086;11.632;2024-01-27T13:19:22;9.50;97.90
22430;DHT22;11382;48.086;11.632;2024-01-27T13:21:51;9.40;97.90
22430;DHT22;11382;48.086;11.632;2024-01-27T13:24:19;9.10;96.20
22430;DHT22;11382;48.086;11.632;2024-01-27T13:26:47;8.90;97.40
22430;DHT22;11382;48.086;11.632;2024-01-27T13:29:15;9.20;98.50
22430;DHT22;11382;48.086;11.632;2024-01-27T13:31:43;9.30;97.80
22430;DHT22;11382;48.086;11.632;2024-01-27T13:34:11;9.20;97.70
22430;DHT22;11382;48.086;11.632;2024-01-27T13:36:42;9.20;97.70
22430;DHT22;11382;48.086;11.632;2024-01-27T13:39:10;9.10;97.60
22430;DHT22;11382;48.086;11.632;2024-01-27T13:41:38;9.10;97.40
22430;DHT22;11382;48.086;11.632;2024-01-27T13:44:06;8.90;97.80
22430;DHT22;11382;48.086;11.632;2024-01-27T13:46:34;9.00;98.20
22430;DHT22;11382;48.086;11.632;2024-01-27T13:49:02;8.70;96.40
22430;DHT22;11382;48.086;11.632;2024-01-27T13:51:31;8.70;97.30
22430;DHT22;11382;48.086;11.632;2024-01-27T13:54:01;8.60;96.20
22430;DHT22;11382;48.086;11.632;2024-01-27T13:56:29;8.40;96.70
22430;DHT22;11382;48.086;11.632;2024-01-27T13:58:59;8.40;96.80
22430;DHT22;11382;48.086;11.632;2024-01-27T14:01:27;8.50;96.60
22430;DHT22;11382;48.086;11.632;2024-01-27T14:03:55;8.10;97.00
22430;DHT22;11382;48.086;11.632;2024-01-27T14:06:25;8.30;97.80
22430;DHT22;11382;48.086;11.632;2024-01-27T14:08:53;8.40;97.30
22430;DHT22;11382;48.086;11.632;2024-01-27T14:11:22;8.50;98.50
22430;DHT22;11382;48.086;11.632;2024-01-27T14:13:51;8.50;97.60
22430;DHT22;11382;48.086;11.632;2024-01-27T14:16:19;8.30;96.60
22430;DHT22;11382;48.086;11.632;2024-01-27T14:18:47;8.20;98.40
22430;DHT22;11382;48.086;11.632;2024-01-27T14:21:16;8.50;97.80
22430;DHT22;11382;48.086;11.632;2024-01-27T14:23:44;8.60;97.20
22430;DHT22;11382;48.086;11.632;2024-01-27T14:26:12;8.50;96.90
22430;DHT22;11382;48.086;11.632;2024-01-27T14:28:43;8.60;98.40
22430;DHT22;11382;48.086;11.632;2024-01-27T14:31:11;8.50;97.30
22430;DHT22;11382;48.086;11.632;2024-01-27T14:33:42;8.30;97.00
22430;DHT22;11382;48.086;11.632;2024-01-27T14:36:10;8.10;97.90
22430;DHT22;11382;48.086;11.632;2024-01-27T14:38:39;8.00;97.40
22430;DHT22;11382;48.086;11.632;2024-01-27T14:41:08;7.80;97.60
22430;DHT22;11382;48.086;11.632;2024-01-27T14:43:38;7.80;98.00
22430;DHT22;11382;48.086;11.632;2024-01-27T14:46:10;7.50;98.00
22430;DHT22;11382;48.086;11.632;2024-01-27T14:48:39;7.60;97.50
22430;DHT22;11382;48.086;11.632;2024-01-27T14:51:09;7.50;97.10
22430;DHT22;11382;48.086;11.632;2024-01-27T14:53:38;7.50;96.60
22430;DHT22;11382;48.086;11.632;2024-01-27T14:56:06;7.40;96.90
22430;DHT22;11382;48.086;11.632;2024-01-27T14:58:34;7.30;97.10
22430;DHT22;11382;48.086;11.632;2024-01-27T15:01:02;7.20;99.40
22430;DHT22;11382;48.086;11.632;2024-01-27T15:03:32;7.10;99.90
22430;DHT22;11382;48.086;11.632;2024-01-27T15:06:01;7.10;99.90
22430;DHT22;11382;48.086;11.632;2024-01-27T15:08:30;7.00;99.90
22430;DHT22;11382;48.086;11.632;2024-01-27T15:10:58;7.00;99.90
22430;DHT22;11382;48.086;11.632;2024-01-27T15:13:26;6.90;99.90
22430;DHT22;11382;48.086;11.632;2024-01-27T15:15:54;6.80;99.90
22430;DHT22;11382;48.086;11.632;2024-01-27T15:18:22;6.80;99.90
22430;DHT22;11382;48.086;11.632;2024-01-27T15:20:52;6.70;99.90
22430;DHT22;11382;48.086;11.632;2024-01-27T15:23:20;6.60;99.90
22430;DHT22;11382;48.086;11.632;2024-01-27T15:25:51;6.80;99.90
22430;DHT22;11382;48.086;11.632;2024-01-27T15:28:19;6.70;99.90
22430;DHT22;11382;48.086;11.632;2024-01-27T15:30:47;6.80;99.90
22430;DHT22;11382;48.086;11.632;2024-01-27T15:33:16;6.70;99.90
22430;DHT22;11382;48.086;11.632;2024-01-27T15:35:45;6.70;99.90